Time;durP1;ratioP1;P1;durP2;ratioP2;P2;SDS_P1;SDS_P2;PMS_P1;PMS_P2;Temp;Humidity;BMP_temperature;BMP_pressure;BME280_temperature;BME280_humidity;BME280_pressure;Samples;Min_cycle;Max_cycle;Signal;HPM_P1;HPM_P2
2022/05/06 00:00:00;;;;;;;17.70;11.52;;;;;;;13.55;81.39;100821.28;5093310;28;20044;-69
2022/05/06 00:02:27;;;;;;;19.08;11.98;;;;;;;13.48;81.29;100822.44;5093440;28;20036;-70
2022/05/06 00:04:53;;;;;;;18.13;11.35;;;;;;;13.43;81.21;100820.25;5093214;28;20032;-70
2022/05/06 00:07:19;;;;;;;18.92;12.20;;;;;;;13.36;81.65;100815.69;5093364;28;20028;-70
2022/05/06 00:09:45;;;;;;;16.15;11.52;;;;;;;13.35;81.58;100819.03;5093029;28;20032;-70
2022/05/06 00:12:13;;;;;;;18.00;11.70;;;;;;;13.30;82.00;100817.63;5093079;28;20091;-70
2022/05/06 00:14:43;;;;;;;17.27;11.77;;;;;;;13.29;82.15;100820.97;5093343;28;20107;-70
2022/05/06 00:17:09;;;;;;;15.80;10.77;;;;;;;13.29;83.02;100821.75;5093199;28;20024;-69
2022/05/06 00:19:34;;;;;;;17.33;11.63;;;;;;;13.31;82.68;100830.66;5092954;28;20039;-70
2022/05/06 00:22:03;;;;;;;19.67;11.23;;;;;;;13.38;82.43;100823.78;5093114;28;20031;-69
2022/05/06 00:24:29;;;;;;;17.80;11.55;;;;;;;13.42;82.17;100821.50;5093470;28;20034;-70
2022/05/06 00:26:57;;;;;;;16.77;10.90;;;;;;;13.49;82.36;100820.38;5093108;28;20024;-71
2022/05/06 00:29:23;;;;;;;17.67;11.82;;;;;;;13.51;82.24;100818.63;5094727;28;20056;-70
2022/05/06 00:31:50;;;;;;;18.23;11.95;;;;;;;13.59;81.92;100816.97;5078568;28;20385;-69
2022/05/06 00:34:16;;;;;;;20.02;11.93;;;;;;;13.63;81.83;100820.44;5078866;28;20090;-69
2022/05/06 00:36:43;;;;;;;18.83;11.38;;;;;;;13.66;81.89;100825.19;5096977;28;20117;-69
2022/05/06 00:39:09;;;;;;;19.52;11.70;;;;;;;13.69;81.60;100824.22;5096507;28;20067;-70
2022/05/06 00:41:35;;;;;;;16.73;11.00;;;;;;;13.74;81.49;100829.25;5096440;28;20500;-70
2022/05/06 00:44:06;;;;;;;16.20;11.48;;;;;;;13.76;81.71;100834.50;5078529;28;20069;-70
2022/05/06 00:46:32;;;;;;;16.35;11.30;;;;;;;13.80;81.28;100835.91;5062059;28;20042;-69
2022/05/06 00:49:08;;;;;;;18.58;11.65;;;;;;;13.82;81.11;100841.91;5096846;28;20032;-69
2022/05/06 00:51:34;;;;;;;16.08;11.40;;;;;;;13.81;80.98;100840.31;5078687;28;20028;-69
2022/05/06 00:54:00;;;;;;;17.20;10.63;;;;;;;13.77;81.02;100836.88;5078402;28;20032;-70
2022/05/06 00:56:27;;;;;;;15.13;11.40;;;;;;;13.77;80.72;100839.72;5078636;28;20154;-70
2022/05/06 00:58:53;;;;;;;16.90;11.48;;;;;;;13.73;80.99;100847.72;5078594;28;20035;-69
2022/05/06 01:01:20;;;;;;;17.83;10.85;;;;;;;13.65;81.00;100855.09;5096270;28;20038;-69
2022/05/06 01:03:47;;;;;;;19.45;11.95;;;;;;;13.61;81.41;100850.84;5096484;28;20035;-68
2022/05/06 01:06:21;;;;;;;16.92;11.15;;;;;;;13.52;81.28;100848.03;5096452;28;20036;-68
2022/05/06 01:08:47;;;;;;;17.50;11.95;;;;;;;13.48;81.08;100853.13;5078088;28;20377;-69
2022/05/06 01:11:17;;;;;;;17.00;10.73;;;;;;;13.42;81.70;100841.53;5096435;28;20028;-69
2022/05/06 01:13:45;;;;;;;18.35;11.75;;;;;;;13.38;81.87;100843.78;5078939;28;20032;-69
2022/05/06 01:16:19;;;;;;;19.92;11.68;;;;;;;13.35;81.93;100839.84;5061289;28;20059;-70
2022/05/06 01:18:44;;;;;;;17.25;12.45;;;;;;;13.37;82.03;100842.22;5077968;28;20115;-70
2022/05/06 01:21:17;;;;;;;18.85;12.52;;;;;;;13.40;81.88;100842.06;5096048;28;20108;-69
2022/05/06 01:23:43;;;;;;;21.98;11.52;;;;;;;13.41;81.64;100842.84;5061740;28;20028;-69
2022/05/06 01:26:09;;;;;;;21.00;12.90;;;;;;;13.39;82.07;100843.31;5096030;28;20460;-69
2022/05/06 01:28:37;;;;;;;17.50;12.45;;;;;;;13.40;81.75;100844.91;5077792;28;20027;-68
2022/05/06 01:31:04;;;;;;;20.42;11.43;;;;;;;13.40;81.71;100847.78;5077657;28;20103;-68
2022/05/06 01:33:31;;;;;;;17.98;11.95;;;;;;;13.43;81.81;100843.13;5078044;28;20024;-68
2022/05/06 01:36:02;;;;;;;20.75;13.68;;;;;;;13.45;81.78;100842.66;5077870;28;20038;-69
2022/05/06 01:38:44;;;;;;;18.95;13.02;;;;;;;13.50;81.86;100844.84;5077582;28;20028;-68
2022/05/06 01:41:15;;;;;;;18.35;11.93;;;;;;;13.54;81.66;100846.25;5094688;28;20131;-69
2022/05/06 01:43:46;;;;;;;20.63;13.07;;;;;;;13.58;81.52;100846.06;5061379;28;20058;-69
2022/05/06 01:46:14;;;;;;;18.08;11.95;;;;;;;13.47;80.88;100832.28;5077967;28;20032;-69
2022/05/06 01:48:42;;;;;;;20.60;12.50;;;;;;;13.65;80.91;100857.16;5060865;28;20066;-71
2022/05/06 01:51:14;;;;;;;18.67;11.98;;;;;;;13.65;80.94;100857.97;5077395;28;20445;-68
2022/05/06 01:53:40;;;;;;;21.27;13.18;;;;;;;13.62;80.57;100852.38;5095251;28;20028;-69
2022/05/06 01:56:11;;;;;;;18.48;12.35;;;;;;;13.54;80.92;100845.47;5077289;28;20066;-68
2022/05/06 01:58:36;;;;;;;20.98;12.35;;;;;;;13.32;81.20;100820.00;5095533;28;20036;-69
2022/05/06 02:01:02;;;;;;;19.88;13.18;;;;;;;13.40;81.36;100852.69;5094137;28;20067;-70
2022/05/06 02:06:13;;;;;;;22.30;13.70;;;;;;;13.27;82.13;100864.34;5080052;28;20031;-69
2022/05/06 02:08:39;;;;;;;21.25;13.30;;;;;;;13.20;81.97;100861.06;5095165;28;20020;-70
2022/05/06 02:11:06;;;;;;;21.00;13.43;;;;;;;13.10;82.45;100859.50;5094966;28;20063;-69
2022/05/06 02:13:34;;;;;;;23.20;13.65;;;;;;;13.16;82.65;100877.63;5095017;28;20024;-69
2022/05/06 02:16:01;;;;;;;22.10;14.07;;;;;;;13.14;82.39;100874.44;5076953;28;20054;-68
2022/05/06 02:18:29;;;;;;;23.42;14.27;;;;;;;13.11;82.51;100876.22;5077100;28;20031;-69
2022/05/06 02:20:58;;;;;;;22.45;14.20;;;;;;;13.09;82.93;100880.78;5094923;28;20028;-69
2022/05/06 02:23:25;;;;;;;22.63;13.80;;;;;;;12.86;83.38;100842.28;5094837;28;20391;-69
2022/05/06 02:25:52;;;;;;;22.83;14.18;;;;;;;13.05;83.14;100874.44;5094772;28;20035;-69
2022/05/06 02:28:18;;;;;;;21.17;14.63;;;;;;;13.05;83.47;100880.97;5076681;28;20385;-69
2022/05/06 02:33:31;;;;;;;21.27;13.73;;;;;;;13.10;83.03;100882.38;5079449;28;20073;-69
2022/05/06 02:35:59;;;;;;;23.27;14.32;;;;;;;13.14;83.35;100883.81;5076621;28;20594;-69
2022/05/06 02:38:26;;;;;;;24.00;15.07;;;;;;;13.16;83.19;100878.41;5076609;28;20139;-69
2022/05/06 02:40:52;;;;;;;26.05;15.38;;;;;;;13.18;82.98;100880.78;5072656;28;20052;-70
2022/05/06 02:43:18;;;;;;;28.25;15.85;;;;;;;13.18;83.29;100880.78;5074081;28;20111;-70
2022/05/06 02:45:45;;;;;;;23.77;14.25;;;;;;;13.13;83.09;100885.06;5072777;28;20063;-68
2022/05/06 02:48:11;;;;;;;24.80;14.27;;;;;;;12.92;83.13;100855.44;5074299;28;20032;-70
2022/05/06 02:50:38;;;;;;;24.27;13.40;;;;;;;13.04;83.23;100887.94;5073711;28;20047;-69
2022/05/06 02:53:04;;;;;;;23.50;15.20;;;;;;;12.97;83.32;100891.16;5072122;28;20028;-68
2022/05/06 02:55:32;;;;;;;25.00;15.02;;;;;;;12.91;83.62;100898.81;5072856;28;20039;-68
2022/05/06 02:57:59;;;;;;;23.08;13.73;;;;;;;12.78;83.49;100883.88;5072893;28;20107;-69
2022/05/06 03:00:28;;;;;;;23.65;14.70;;;;;;;12.79;84.00;100897.72;5072486;28;20397;-69
2022/05/06 03:02:55;;;;;;;24.33;15.18;;;;;;;12.70;84.14;100885.50;5074105;28;20116;-69
2022/05/06 03:05:21;;;;;;;28.17;15.73;;;;;;;12.67;84.68;100897.91;5074018;28;20060;-69
2022/05/06 03:07:47;;;;;;;30.00;16.48;;;;;;;12.63;84.66;100903.78;5074095;28;20033;-69
2022/05/06 03:10:13;;;;;;;27.75;15.88;;;;;;;12.59;84.96;100905.22;5074082;28;20031;-69
2022/05/06 03:12:42;;;;;;;28.75;15.90;;;;;;;12.55;85.04;100906.19;5073947;28;20111;-69
2022/05/06 03:15:09;;;;;;;26.95;16.60;;;;;;;12.53;85.13;100919.38;5072959;28;20389;-69
2022/05/06 03:17:34;;;;;;;28.35;15.98;;;;;;;12.51;85.43;100907.63;5074048;28;20024;-69
2022/05/06 03:20:04;;;;;;;24.92;15.77;;;;;;;12.51;85.41;100910.47;5072554;28;20035;-69
2022/05/06 03:22:41;;;;;;;27.20;16.67;;;;;;;12.51;85.36;100913.31;5056152;28;20025;-69
2022/05/06 03:25:09;;;;;;;27.10;15.73;;;;;;;12.50;85.43;100912.53;5072409;28;20029;-68
2022/05/06 03:30:22;;;;;;;27.17;15.48;;;;;;;12.47;85.31;100912.69;5073780;28;20040;-68
2022/05/06 03:32:50;;;;;;;29.85;17.15;;;;;;;12.45;85.37;100920.94;5073737;28;20111;-69
2022/05/06 03:35:16;;;;;;;25.65;16.25;;;;;;;12.44;85.55;100916.50;5072187;28;20055;-69
2022/05/06 03:37:44;;;;;;;26.92;16.52;;;;;;;12.38;85.89;100902.06;5073317;28;20024;-68
2022/05/06 03:40:11;;;;;;;28.75;17.23;;;;;;;12.49;85.66;100921.56;5073787;28;20105;-68
2022/05/06 03:42:38;;;;;;;28.70;16.73;;;;;;;12.51;85.47;100922.69;5093516;28;20040;-69
2022/05/06 03:45:07;;;;;;;26.92;17.15;;;;;;;12.52;85.63;100920.63;5093614;28;20103;-68
2022/05/06 03:47:34;;;;;;;27.02;16.15;;;;;;;12.62;85.46;100935.72;5093500;28;20074;-69
2022/05/06 03:52:44;;;;;;;28.98;17.63;;;;;;;12.81;85.08;100934.41;5093874;28;20034;-69
2022/05/06 03:55:12;;;;;;;28.15;16.55;;;;;;;12.94;84.70;100941.50;5093490;28;20111;-69
2022/05/06 03:57:38;;;;;;;29.95;17.83;;;;;;;13.03;84.07;100937.84;5093495;28;20097;-69
2022/05/06 04:00:05;;;;;;;28.55;15.32;;;;;;;13.11;84.09;100944.84;5075488;28;20106;-69
2022/05/06 04:02:35;;;;;;;32.03;17.90;;;;;;;13.27;83.78;100946.56;5058823;28;20048;-69
2022/05/06 04:05:01;;;;;;;27.45;15.82;;;;;;;13.45;82.64;100954.25;5097429;28;20476;-69
2022/05/06 04:07:27;;;;;;;26.30;15.48;;;;;;;13.55;82.54;100945.16;5097771;28;20325;-69
2022/05/06 04:09:53;;;;;;;27.92;15.63;;;;;;;13.72;81.87;100960.66;5097630;28;20024;-69
2022/05/06 04:12:21;;;;;;;24.67;15.38;;;;;;;13.86;81.00;100964.88;5097442;28;20035;-69
2022/05/06 04:14:47;;;;;;;21.70;14.80;;;;;;;13.95;80.60;100952.59;5093195;28;20031;-69
2022/05/06 04:17:13;;;;;;;22.70;14.95;;;;;;;14.11;79.75;100960.75;5083772;28;20480;-69
2022/05/06 04:25:17;;;;;;;22.90;14.70;;;;;;;14.47;78.02;100969.09;5045701;28;20488;-69
2022/05/06 04:27:43;;;;;;;22.75;14.15;;;;;;;14.59;77.59;100964.41;5058836;28;20120;-69
2022/05/06 04:30:10;;;;;;;24.25;14.43;;;;;;;14.68;77.31;100972.91;5058599;28;20523;-68
2022/05/06 04:32:36;;;;;;;25.40;15.50;;;;;;;14.76;76.90;100979.03;5076634;28;20116;-68
2022/05/06 04:35:05;;;;;;;19.73;13.55;;;;;;;14.80;76.47;100988.28;5076736;28;20100;-68
2022/05/06 04:37:35;;;;;;;21.17;13.63;;;;;;;14.86;76.76;100995.69;5076423;28;20028;-69
2022/05/06 04:40:00;;;;;;;31.90;17.65;;;;;;;14.92;75.70;100992.91;5091475;28;20100;-68
2022/05/06 04:42:27;;;;;;;23.02;13.45;;;;;;;14.94;75.63;100991.16;5096242;28;20138;-68
2022/05/06 04:44:52;;;;;;;20.83;14.75;;;;;;;15.01;75.69;100995.69;5096845;28;20051;-69
2022/05/06 04:47:19;;;;;;;26.25;16.85;;;;;;;15.10;75.22;101007.88;5078495;28;20377;-69
2022/05/06 04:49:44;;;;;;;19.77;14.05;;;;;;;15.19;75.03;101004.16;5096747;28;20024;-69
2022/05/06 04:52:09;;;;;;;26.42;15.88;;;;;;;15.28;74.70;100997.50;5096384;28;20024;-69
2022/05/06 04:54:37;;;;;;;20.52;14.02;;;;;;;15.37;73.54;100995.31;5078204;28;20112;-68
2022/05/06 04:57:12;;;;;;;19.92;13.93;;;;;;;15.49;73.07;100999.94;5096110;28;20024;-68
2022/05/06 04:59:37;;;;;;;18.80;13.23;;;;;;;15.62;73.59;100996.03;5078224;28;20384;-71
2022/05/06 05:02:04;;;;;;;18.67;12.55;;;;;;;15.71;72.11;100998.78;5096244;28;20525;-72
2022/05/06 05:04:30;;;;;;;19.85;12.80;;;;;;;15.81;71.79;101006.78;5095486;28;20481;-73
2022/05/06 05:07:00;;;;;;;17.80;12.82;;;;;;;15.89;70.86;101005.06;5096514;28;20156;-70
2022/05/06 05:09:25;;;;;;;19.52;12.48;;;;;;;15.99;70.64;101005.72;5094149;28;20043;-74
2022/05/06 05:11:51;;;;;;;20.58;13.73;;;;;;;16.13;70.91;101019.28;5083160;28;20400;-72
2022/05/06 05:14:18;;;;;;;24.65;15.32;;;;;;;16.25;70.22;101009.53;5094645;28;20044;-71
2022/05/06 05:16:44;;;;;;;19.15;13.25;;;;;;;16.29;69.56;101010.09;5095437;28;20028;-71
2022/05/06 05:19:10;;;;;;;20.98;14.20;;;;;;;16.40;68.94;101015.22;5076979;28;20019;-74
2022/05/06 05:21:44;;;;;;;17.80;12.65;;;;;;;16.49;68.46;101011.41;5095200;28;20516;-74
2022/05/06 05:24:10;;;;;;;19.83;12.82;;;;;;;16.54;68.36;101005.72;5095308;28;20110;-74
2022/05/06 05:26:36;;;;;;;16.17;11.82;;;;;;;16.63;67.74;101022.06;5095317;28;20119;-74
2022/05/06 05:29:02;;;;;;;19.83;12.02;;;;;;;16.69;68.08;101017.19;5094147;28;20042;-75
2022/05/06 05:31:30;;;;;;;18.17;11.98;;;;;;;16.71;66.92;101015.41;5093900;28;20020;-75
2022/05/06 05:33:56;;;;;;;21.00;13.50;;;;;;;16.66;67.37;101018.19;5080197;28;20500;-75
2022/05/06 05:36:24;;;;;;;19.38;11.50;;;;;;;16.74;66.32;101030.84;5115073;28;20016;-75
2022/05/06 05:38:49;;;;;;;18.95;11.20;;;;;;;16.81;65.83;101036.97;5115737;28;20529;-75
2022/05/06 05:41:17;;;;;;;16.13;11.00;;;;;;;16.79;64.82;101036.66;5115335;28;20127;-75
2022/05/06 05:49:44;;;;;;;14.18;10.43;;;;;;;16.64;62.09;101026.53;5107599;28;20636;-77
2022/05/06 05:52:10;;;;;;;14.88;10.00;;;;;;;16.69;63.26;101040.19;5096168;28;20016;-76
2022/05/06 05:54:36;;;;;;;12.55;8.07;;;;;;;16.59;61.72;101035.88;5085092;28;20036;-75
2022/05/06 05:57:02;;;;;;;13.25;8.38;;;;;;;16.65;61.90;101037.53;5083478;28;20024;-76
2022/05/06 05:59:29;;;;;;;14.45;9.18;;;;;;;16.71;61.50;101046.25;5091261;28;20497;-76
2022/05/06 06:01:54;;;;;;;15.50;9.68;;;;;;;16.75;61.76;101046.81;5091536;28;20028;-76
2022/05/06 06:04:21;;;;;;;11.82;8.80;;;;;;;16.76;60.94;101048.41;5083092;28;20059;-75
2022/05/06 06:06:48;;;;;;;10.82;8.20;;;;;;;16.78;59.97;101051.56;5073193;28;20078;-76
2022/05/06 06:09:14;;;;;;;13.77;9.02;;;;;;;16.81;60.06;101047.69;5091984;28;20079;-76
2022/05/06 06:11:40;;;;;;;13.05;8.90;;;;;;;16.83;59.91;101043.00;5112730;28;20020;-74
2022/05/06 06:14:05;;;;;;;17.52;8.35;;;;;;;16.88;59.41;101034.91;5080645;28;20031;-75
2022/05/06 06:16:32;;;;;;;12.75;7.78;;;;;;;16.94;58.36;101053.84;5085133;28;20032;-76
2022/05/06 06:18:58;;;;;;;12.57;8.23;;;;;;;17.02;58.60;101039.81;5079444;28;20020;-76
2022/05/06 06:21:27;;;;;;;12.25;7.65;;;;;;;17.11;58.18;101031.81;5065093;28;20215;-77
2022/05/06 06:23:53;;;;;;;13.57;8.05;;;;;;;17.24;57.55;101035.09;5041210;28;20154;-76
2022/05/06 06:26:18;;;;;;;14.45;8.38;;;;;;;17.45;56.72;101035.81;5072295;28;20054;-76
2022/05/06 06:28:44;;;;;;;12.00;8.25;;;;;;;17.68;55.22;101020.34;5077722;28;20037;-77
2022/05/06 06:31:11;;;;;;;13.95;8.25;;;;;;;17.99;54.83;101036.03;5062423;28;20036;-82
2022/05/06 06:33:42;;;;;;;17.80;7.47;;;;;;;18.22;53.67;101039.84;5075992;28;20491;-79
2022/05/06 06:36:08;;;;;;;;;;;;;;;18.51;51.93;101039.50;5082054;28;20031;-84
2022/05/06 06:38:37;;;;;;;9.48;6.15;;;;;;;18.78;50.72;101040.97;5074888;28;19908;-77
2022/05/06 06:41:03;;;;;;;7.95;5.85;;;;;;;18.99;49.63;101028.69;5050891;28;20064;-79
2022/05/06 06:43:31;;;;;;;11.02;5.68;;;;;;;19.33;48.83;101037.47;5065126;28;20028;-79
2022/05/06 06:45:57;;;;;;;11.15;6.80;;;;;;;19.75;49.59;101036.47;5082168;28;20008;-77
2022/05/06 06:48:25;;;;;;;10.40;6.30;;;;;;;20.11;47.08;101041.19;5077254;28;20650;-78
2022/05/06 06:50:56;;;;;;;14.02;7.03;;;;;;;20.26;45.42;101040.91;5074430;28;20012;-76
2022/05/06 06:53:21;;;;;;;9.30;5.95;;;;;;;20.24;45.18;101026.16;5072105;28;20020;-81
2022/05/06 06:55:52;;;;;;;8.63;5.65;;;;;;;20.41;44.71;101029.06;5070946;28;20109;-80
2022/05/06 06:58:17;;;;;;;11.88;8.68;;;;;;;20.82;45.04;101034.97;5072202;28;20476;-79
2022/05/06 07:00:43;;;;;;;6.43;4.80;;;;;;;20.99;42.85;101027.75;5054613;28;20024;-80
2022/05/06 07:03:12;;;;;;;7.70;4.43;;;;;;;21.25;42.72;101029.50;5076597;28;20107;-75
2022/05/06 07:11:52;;;;;;;5.70;4.32;;;;;;;21.63;42.11;101039.22;5087158;28;20039;-77
2022/05/06 07:13:53;;;;;;;5.20;4.03;;;;;;;22.01;38.89;101040.25;5072418;28;20097;-71
2022/05/06 07:16:19;;;;;;;6.13;4.30;;;;;;;21.91;38.59;101052.16;5073587;28;20074;-72
2022/05/06 07:18:45;;;;;;;7.43;4.32;;;;;;;21.92;38.86;101050.06;5073842;28;20032;-71
2022/05/06 07:21:11;;;;;;;7.57;3.92;;;;;;;21.90;39.77;101059.31;5072609;28;20030;-72
2022/05/06 07:23:37;;;;;;;4.63;3.97;;;;;;;21.81;39.04;101058.84;5073459;28;20028;-73
2022/05/06 07:26:03;;;;;;;7.72;4.50;;;;;;;21.70;39.08;101065.56;5073539;28;20017;-69
2022/05/06 07:28:29;;;;;;;6.78;3.70;;;;;;;21.69;39.61;101069.78;5073249;28;20102;-72
2022/05/06 07:30:55;;;;;;;4.72;4.22;;;;;;;21.57;39.25;101073.28;5073338;28;20020;-72
2022/05/06 07:33:20;;;;;;;8.63;4.20;;;;;;;21.58;39.55;101080.66;5073324;28;20170;-74
2022/05/06 07:35:46;;;;;;;6.28;3.80;;;;;;;21.43;40.07;101076.00;5073560;28;20089;-74
2022/05/06 07:38:14;;;;;;;8.35;4.43;;;;;;;21.36;38.64;101073.66;5073003;28;20484;-75
2022/05/06 07:40:41;;;;;;;10.27;4.50;;;;;;;21.48;39.69;101071.50;5077276;28;20109;-72
2022/05/06 07:43:06;;;;;;;7.05;4.40;;;;;;;21.75;39.55;101078.44;5093210;28;20063;-68
2022/05/06 07:45:33;;;;;;;6.10;4.20;;;;;;;22.22;38.85;101076.19;5092872;28;20485;-73
2022/05/06 07:48:03;;;;;;;3.55;3.25;;;;;;;22.71;37.26;101071.22;5093496;28;20107;-70
2022/05/06 07:50:31;;;;;;;5.65;3.63;;;;;;;23.05;36.96;101077.41;5083387;28;20089;-71
2022/05/06 07:52:58;;;;;;;7.15;3.13;;;;;;;23.22;35.62;101077.97;5093404;28;20032;-75
2022/05/06 07:55:23;;;;;;;6.20;3.42;;;;;;;23.28;36.12;101077.91;5092039;28;20028;-73
2022/05/06 07:57:49;;;;;;;7.70;3.88;;;;;;;23.27;34.80;101085.06;5075190;28;20488;-75
2022/05/06 08:00:15;;;;;;;5.25;3.10;;;;;;;23.23;35.39;101083.25;5092846;28;20442;-73
2022/05/06 08:05:27;;;;;;;6.47;3.08;;;;;;;23.54;33.86;101084.66;5077736;28;20073;-72
2022/05/06 08:07:54;;;;;;;4.63;3.63;;;;;;;23.82;35.10;101084.25;5093079;28;20028;-74
2022/05/06 08:10:20;;;;;;;5.40;3.15;;;;;;;24.26;33.46;101079.81;5075177;28;20020;-77
2022/05/06 08:12:47;;;;;;;6.45;3.45;;;;;;;24.74;33.11;101081.56;5058018;28;20070;-70
2022/05/06 08:15:12;;;;;;;5.90;3.38;;;;;;;25.39;31.61;101079.94;5093206;28;20024;-74
2022/05/06 08:17:42;;;;;;;4.93;3.22;;;;;;;25.99;31.29;101093.66;5093039;28;20028;-75
2022/05/06 08:20:08;;;;;;;4.43;3.17;;;;;;;26.51;29.79;101087.53;5058085;28;20024;-73
2022/05/06 08:22:36;;;;;;;6.80;2.95;;;;;;;26.99;29.31;101090.97;5057879;28;20032;-72
2022/05/06 08:25:03;;;;;;;5.68;3.17;;;;;;;27.35;28.87;101096.81;5058810;28;20032;-74
2022/05/06 08:27:28;;;;;;;4.53;2.78;;;;;;;27.58;28.84;101097.72;5057823;28;20039;-72
2022/05/06 08:29:55;;;;;;;6.10;2.85;;;;;;;28.14;28.71;101087.13;5074707;28;20028;-72
2022/05/06 08:32:21;;;;;;;5.13;3.67;;;;;;;28.72;25.63;101081.06;5092729;28;20016;-69
2022/05/06 08:34:47;;;;;;;5.55;2.97;;;;;;;28.81;27.19;101082.66;5087496;28;20033;-68
2022/05/06 08:37:13;;;;;;;4.65;3.75;;;;;;;29.02;26.73;101080.22;5087915;28;20027;-70
2022/05/06 08:39:41;;;;;;;5.13;3.30;;;;;;;29.03;25.54;101083.94;5076677;28;20032;-69
2022/05/06 08:42:18;;;;;;;4.78;3.60;;;;;;;28.89;24.71;101080.47;5088337;28;20090;-74
2022/05/06 08:53:05;;;;;;;4.25;3.50;;;;;;;28.60;24.90;101100.44;5070635;28;20035;-73
2022/05/06 08:55:39;;;;;;;4.68;3.28;;;;;;;28.12;24.57;101101.59;5042266;28;20039;-71
2022/05/06 08:58:06;;;;;;;4.45;3.63;;;;;;;27.75;26.31;101106.75;5058149;28;20116;-77
2022/05/06 09:00:31;;;;;;;4.82;3.35;;;;;;;27.26;26.55;101094.44;5080223;28;20031;-85
2022/05/06 09:02:58;;;;;;;7.68;3.72;;;;;;;27.35;27.73;101109.31;5047163;28;20028;-75
2022/05/06 09:05:24;;;;;;;6.40;3.00;;;;;;;27.74;27.88;101108.13;5096441;28;20081;-74
2022/05/06 09:08:05;;;;;;;6.03;3.40;;;;;;;27.42;26.24;101110.72;5102386;28;20035;-81
2022/05/06 09:10:31;;;;;;;4.40;2.70;;;;;;;27.47;26.11;101100.97;5076078;28;20409;-83
2022/05/06 09:13:04;;;;;;;4.32;2.80;;;;;;;27.39;26.19;101100.16;5062307;28;20021;-83
2022/05/06 09:18:21;;;;;;;5.35;3.40;;;;;;;27.40;26.48;101099.59;5083006;28;20614;-77
2022/05/06 09:20:50;;;;;;;5.22;3.22;;;;;;;27.25;25.82;101096.59;5078386;28;20028;-73
2022/05/06 09:23:28;;;;;;;4.30;2.85;;;;;;;27.39;26.10;101091.38;5077814;28;20053;-75
2022/05/06 09:26:14;;;;;;;4.78;2.80;;;;;;;27.64;25.66;101094.63;5097292;28;20036;-77
2022/05/06 09:28:40;;;;;;;7.28;3.83;;;;;;;27.62;26.30;101091.50;5078479;28;20112;-75
2022/05/06 09:31:10;;;;;;;4.78;2.97;;;;;;;27.45;25.32;101086.91;5079238;28;20032;-74
2022/05/06 09:33:40;;;;;;;6.50;3.23;;;;;;;27.31;26.21;101090.56;5075086;28;20574;-75
2022/05/06 09:36:23;;;;;;;5.45;3.70;;;;;;;27.06;26.19;101078.56;5075624;28;20339;-73
2022/05/06 09:39:10;;;;;;;6.90;3.85;;;;;;;26.77;26.99;101077.78;5057569;28;20028;-73
2022/05/06 09:41:48;;;;;;;5.18;3.03;;;;;;;26.82;26.38;101067.28;5074679;28;20557;-73
2022/05/06 09:44:13;;;;;;;3.03;2.63;;;;;;;26.79;26.69;101068.44;5074826;28;20481;-70
2022/05/06 09:46:39;;;;;;;10.07;4.55;;;;;;;26.69;27.10;101071.09;5075017;28;20108;-70
2022/05/06 09:49:11;;;;;;;7.10;4.75;;;;;;;26.75;28.85;101068.78;5040233;28;20097;-71
2022/05/06 09:51:38;;;;;;;5.15;3.20;;;;;;;26.78;27.48;101073.50;5040348;28;20021;-72
2022/05/06 09:54:07;;;;;;;6.05;3.42;;;;;;;26.72;27.61;101064.09;5074827;28;20069;-70
2022/05/06 09:56:33;;;;;;;3.53;3.03;;;;;;;26.72;28.04;101055.31;5054019;28;20034;-68
2022/05/06 09:58:58;;;;;;;12.57;4.05;;;;;;;26.73;28.21;101059.81;5056454;28;20093;-72
2022/05/06 10:01:28;;;;;;;6.30;3.05;;;;;;;26.82;27.66;101058.50;5073799;28;20076;-69
2022/05/06 10:03:54;;;;;;;4.20;3.70;;;;;;;26.83;29.13;101057.16;5138545;22;20088;-73
2022/05/06 10:06:38;;;;;;;4.68;3.08;;;;;;;27.01;27.13;101059.81;5015773;28;20034;-73
2022/05/06 10:09:07;;;;;;;3.92;2.60;;;;;;;27.31;27.23;101055.44;5017986;28;20080;-75
2022/05/06 10:11:34;;;;;;;4.55;2.60;;;;;;;27.32;26.63;101057.81;4998908;28;20022;-73
2022/05/06 10:14:01;;;;;;;2.13;1.92;;;;;;;27.23;26.21;101055.44;5015410;28;20478;-74
2022/05/06 10:16:37;;;;;;;3.13;2.88;;;;;;;26.98;25.50;101054.34;4997955;28;20056;-71
2022/05/06 10:19:03;;;;;;;3.72;2.45;;;;;;;26.82;26.21;101056.38;4995972;28;20030;-72
2022/05/06 10:21:49;;;;;;;2.95;2.10;;;;;;;26.52;25.52;101056.94;5014286;28;20038;-71
2022/05/06 10:24:16;;;;;;;7.63;3.15;;;;;;;26.42;25.47;101060.94;5014302;28;20481;-68
2022/05/06 10:26:43;;;;;;;4.22;2.58;;;;;;;26.32;26.71;101060.69;4996203;28;20084;-69
2022/05/06 10:32:55;;;;;;;3.88;2.28;;;;;;;25.86;26.05;101052.84;5012330;28;20044;-73
2022/05/06 10:35:56;;;;;;;3.53;2.00;;;;;;;25.59;25.83;101052.19;5014485;28;20034;-69
2022/05/06 10:38:27;;;;;;;3.07;2.20;;;;;;;25.21;27.07;101049.56;4915708;29;20039;-70
2022/05/06 10:40:56;;;;;;;4.15;2.30;;;;;;;25.08;27.76;101049.59;4915058;29;20047;-69
2022/05/06 10:43:48;;;;;;;3.45;2.08;;;;;;;24.99;26.85;101060.94;4916056;29;20039;-70
2022/05/06 10:46:36;;;;;;;2.63;1.75;;;;;;;24.97;28.02;101051.97;4935152;28;20038;-70
2022/05/06 10:49:39;;;;;;;2.25;2.00;;;;;;;25.03;28.35;101046.78;4980290;28;20022;-73
2022/05/06 10:52:26;;;;;;;3.03;1.80;;;;;;;25.16;28.16;101052.63;5013990;28;20048;-73
2022/05/06 10:55:03;;;;;;;5.63;2.20;;;;;;;25.01;27.50;101041.56;5013726;28;20033;-69
2022/05/06 10:57:48;;;;;;;4.35;2.22;;;;;;;24.62;28.72;101062.69;5013987;28;20041;-68
2022/05/06 11:00:16;;;;;;;4.18;2.10;;;;;;;24.33;28.04;101055.06;4996165;28;20426;-69
2022/05/06 11:03:02;;;;;;;3.00;2.30;;;;;;;24.03;29.49;101053.19;5014177;28;20030;-72
2022/05/06 11:05:30;;;;;;;2.58;2.38;;;;;;;23.93;30.75;101043.31;4996109;28;20054;-72
2022/05/06 11:07:58;;;;;;;2.95;2.20;;;;;;;23.93;30.96;101049.13;5012568;28;20044;-71
2022/05/06 11:10:26;;;;;;;6.85;2.22;;;;;;;23.96;30.78;101035.59;4996126;28;20030;-71
2022/05/06 11:12:57;;;;;;;3.88;2.70;;;;;;;24.00;29.21;101031.03;4995000;28;20479;-71
2022/05/06 11:15:33;;;;;;;5.65;2.28;;;;;;;23.96;28.84;101036.38;4996403;28;20170;-72
2022/05/06 11:18:04;;;;;;;3.35;2.28;;;;;;;24.09;29.42;101024.75;5013385;28;20022;-71
2022/05/06 11:20:33;;;;;;;12.15;3.13;;;;;;;24.26;29.96;101018.66;5013499;28;20036;-72
2022/05/06 11:23:11;;;;;;;4.10;2.20;;;;;;;24.33;29.15;101023.81;5013793;28;20073;-72
2022/05/06 11:25:37;;;;;;;3.13;2.25;;;;;;;24.20;28.65;101017.19;4996249;28;20087;-71
2022/05/06 11:28:17;;;;;;;4.10;2.20;;;;;;;24.14;29.59;101013.56;4996087;28;20034;-72
2022/05/06 11:30:50;;;;;;;3.88;2.13;;;;;;;24.10;29.25;101011.78;5013797;28;20013;-72
2022/05/06 11:33:24;;;;;;;3.65;2.60;;;;;;;24.01;30.05;101015.13;5013683;28;20033;-72
2022/05/06 11:36:01;;;;;;;5.60;2.70;;;;;;;23.95;29.84;101016.56;5013789;28;20025;-70
2022/05/06 11:38:34;;;;;;;4.57;2.70;;;;;;;23.93;30.26;101011.28;4995874;28;20029;-74
2022/05/06 11:41:14;;;;;;;4.88;3.00;;;;;;;24.04;30.08;101010.31;5018701;28;20025;-75
2022/05/06 11:43:43;;;;;;;5.95;2.15;;;;;;;24.28;31.15;101009.34;5002271;28;20483;-73
2022/05/06 11:49:00;;;;;;;4.30;2.30;;;;;;;24.91;29.54;101012.03;5012873;28;20048;-75
2022/05/06 11:51:30;;;;;;;5.57;2.40;;;;;;;25.16;28.58;101011.78;4995618;28;20025;-73
2022/05/06 11:54:03;;;;;;;3.65;2.42;;;;;;;25.26;28.96;101007.81;4979702;28;20036;-73
2022/05/06 11:56:29;;;;;;;5.22;2.97;;;;;;;25.08;29.00;101002.16;5013607;28;20375;-72
2022/05/06 11:58:58;;;;;;;4.40;2.55;;;;;;;24.96;28.97;100997.94;5012926;28;20564;-75
2022/05/06 12:01:25;;;;;;;4.85;2.30;;;;;;;24.90;28.60;100998.84;5012105;28;20037;-73
2022/05/06 12:03:50;;;;;;;4.45;2.42;;;;;;;24.75;28.41;101001.53;4992201;28;20141;-72
2022/05/06 12:06:18;;;;;;;5.55;2.88;;;;;;;24.77;28.79;101007.56;4983095;28;20105;-74
2022/05/06 12:08:46;;;;;;;9.90;3.05;;;;;;;24.88;28.51;101009.47;4973161;28;20026;-73
2022/05/06 12:11:18;;;;;;;5.10;2.45;;;;;;;24.91;29.07;101003.31;4974319;28;20039;-72